Time;durP1;ratioP1;P1;durP2;ratioP2;P2;SDS_P1;SDS_P2;PMS_P1;PMS_P2;Temp;Humidity;BMP_temperature;BMP_pressure;BME280_temperature;BME280_humidity;BME280_pressure;Samples;Min_cycle;Max_cycle;Signal;HPM_P1;HPM_P2
2021/11/22 00:02:12;;;;;;;6.78;3.35;;;12.20;87.60;;;;;;4975781;28;20041;-76
2021/11/22 00:04:38;;;;;;;9.18;3.83;;;12.20;87.40;;;;;;4974361;28;20481;-76
2021/11/22 00:07:04;;;;;;;5.88;3.22;;;12.20;87.40;;;;;;4975806;28;20034;-75
2021/11/22 00:09:32;;;;;;;8.15;3.75;;;12.20;87.60;;;;;;4974554;28;20026;-76
2021/11/22 00:11:58;;;;;;;8.05;3.75;;;12.20;87.40;;;;;;4974462;28;20118;-76
2021/11/22 00:14:24;;;;;;;7.70;3.75;;;12.20;87.20;;;;;;4975458;28;20520;-76
2021/11/22 00:16:49;;;;;;;7.25;3.60;;;12.20;87.40;;;;;;4975568;28;20059;-76
2021/11/22 00:19:15;;;;;;;8.02;3.65;;;12.20;87.30;;;;;;4974436;28;20033;-76
2021/11/22 00:21:40;;;;;;;7.47;3.58;;;12.20;87.50;;;;;;4975535;28;20034;-76
2021/11/22 00:24:06;;;;;;;6.35;3.42;;;12.20;87.40;;;;;;4974247;28;20062;-75
2021/11/22 00:26:32;;;;;;;7.75;3.78;;;12.20;87.10;;;;;;4974100;28;20559;-76
2021/11/22 00:28:58;;;;;;;7.90;3.50;;;12.20;87.10;;;;;;4973861;28;20027;-76
2021/11/22 00:31:24;;;;;;;7.85;3.63;;;12.20;87.20;;;;;;4975373;28;20019;-76
2021/11/22 00:33:51;;;;;;;7.20;3.60;;;12.20;87.20;;;;;;4974069;28;20400;-76
2021/11/22 00:36:16;;;;;;;6.30;3.42;;;12.20;87.10;;;;;;4973809;28;20500;-75
2021/11/22 00:38:42;;;;;;;7.43;3.80;;;12.30;87.00;;;;;;4974041;28;20042;-76
2021/11/22 00:41:08;;;;;;;7.30;4.13;;;12.20;87.00;;;;;;4973869;28;20038;-76
2021/11/22 00:43:34;;;;;;;7.30;3.95;;;12.20;86.90;;;;;;4974742;28;20089;-77
2021/11/22 00:45:59;;;;;;;8.20;4.13;;;12.30;87.10;;;;;;4973802;28;20424;-77
2021/11/22 00:48:25;;;;;;;7.40;4.00;;;12.30;87.10;;;;;;4973718;28;20038;-77
2021/11/22 00:50:53;;;;;;;10.63;4.80;;;12.20;87.40;;;;;;4974891;28;20109;-77
2021/11/22 00:53:19;;;;;;;8.45;4.65;;;12.20;87.00;;;;;;4974994;28;20057;-77
2021/11/22 00:55:44;;;;;;;6.93;4.03;;;12.20;87.00;;;;;;4973360;28;20071;-76
2021/11/22 00:58:10;;;;;;;7.65;4.22;;;12.20;87.80;;;;;;4974861;28;20034;-76
2021/11/22 01:00:36;;;;;;;11.30;4.50;;;12.20;87.60;;;;;;4973567;28;20655;-76
2021/11/22 01:03:03;;;;;;;9.00;4.50;;;12.30;87.60;;;;;;4973575;28;20105;-77
2021/11/22 01:05:29;;;;;;;10.40;4.93;;;12.30;87.40;;;;;;4974464;28;20023;-76
2021/11/22 01:07:55;;;;;;;10.80;4.75;;;12.30;87.30;;;;;;4973317;28;20027;-76
2021/11/22 01:10:22;;;;;;;7.38;4.22;;;12.30;87.00;;;;;;4974717;28;20030;-77
2021/11/22 01:12:48;;;;;;;8.10;4.22;;;12.30;86.90;;;;;;4973397;28;20026;-76
2021/11/22 01:15:18;;;;;;;6.75;4.30;;;12.30;86.80;;;;;;4972877;28;20027;-77
2021/11/22 01:17:44;;;;;;;8.75;4.43;;;12.30;86.70;;;;;;4974435;28;20106;-77
2021/11/22 01:20:13;;;;;;;8.45;4.60;;;12.30;86.90;;;;;;4973279;28;20023;-76
2021/11/22 01:22:39;;;;;;;9.00;4.28;;;12.30;86.50;;;;;;4973328;28;20023;-76
2021/11/22 01:25:07;;;;;;;8.57;4.57;;;12.30;86.70;;;;;;4972872;28;20051;-76
2021/11/22 01:27:33;;;;;;;9.07;4.65;;;12.30;86.50;;;;;;4974275;28;20053;-76
2021/11/22 01:29:58;;;;;;;9.07;4.43;;;12.40;86.50;;;;;;4972866;28;20058;-77
2021/11/22 01:32:24;;;;;;;6.80;4.00;;;12.30;86.30;;;;;;4973020;28;20030;-77
2021/11/22 01:34:50;;;;;;;8.02;4.07;;;12.30;86.40;;;;;;4972782;28;20484;-76
2021/11/22 01:37:16;;;;;;;7.82;4.30;;;12.30;86.50;;;;;;4974144;28;20029;-77
2021/11/22 01:39:41;;;;;;;7.95;4.55;;;12.30;86.80;;;;;;4973044;28;20089;-76
2021/11/22 01:42:07;;;;;;;7.60;4.20;;;12.20;86.50;;;;;;4973049;28;20470;-76
2021/11/22 01:44:33;;;;;;;10.38;4.63;;;12.20;86.40;;;;;;4972702;28;20037;-77
2021/11/22 01:46:58;;;;;;;7.65;4.20;;;12.20;86.50;;;;;;4974031;28;20031;-77
2021/11/22 01:49:24;;;;;;;6.32;3.80;;;12.20;86.60;;;;;;4974073;28;20031;-76
2021/11/22 01:51:50;;;;;;;7.47;4.07;;;12.20;86.70;;;;;;4974090;28;20027;-76
2021/11/22 01:54:16;;;;;;;6.65;3.67;;;12.10;86.70;;;;;;4972066;28;20030;-77
2021/11/22 01:56:45;;;;;;;7.15;4.00;;;12.20;86.70;;;;;;4972476;28;20041;-76
2021/11/22 01:59:14;;;;;;;7.45;3.92;;;12.10;86.70;;;;;;4972716;28;20023;-77
2021/11/22 02:01:41;;;;;;;7.10;3.70;;;12.10;86.40;;;;;;4972750;28;20493;-77
2021/11/22 02:04:06;;;;;;;6.07;3.75;;;12.20;86.70;;;;;;4973818;28;20030;-75
2021/11/22 02:06:32;;;;;;;7.05;3.65;;;12.20;86.40;;;;;;4973817;28;20039;-76
2021/11/22 02:08:57;;;;;;;6.53;3.45;;;12.20;86.40;;;;;;4973751;28;20125;-76
2021/11/22 02:11:23;;;;;;;7.25;3.50;;;12.20;86.40;;;;;;4972597;28;20118;-77
2021/11/22 02:13:49;;;;;;;5.35;3.25;;;12.20;86.30;;;;;;4972540;28;20073;-76
2021/11/22 02:16:15;;;;;;;5.78;3.45;;;12.20;86.30;;;;;;4972376;28;20054;-76
2021/11/22 02:18:44;;;;;;;5.72;3.50;;;12.20;86.30;;;;;;4972626;28;20030;-76
2021/11/22 02:21:11;;;;;;;5.45;3.42;;;12.10;86.20;;;;;;4973621;28;20552;-77
2021/11/22 02:23:37;;;;;;;5.80;3.25;;;12.10;86.10;;;;;;4973762;28;20029;-76
2021/11/22 02:26:03;;;;;;;6.50;3.40;;;12.00;85.90;;;;;;4972207;28;20127;-76
2021/11/22 02:28:29;;;;;;;5.13;3.30;;;12.10;85.80;;;;;;4973490;28;20456;-76
2021/11/22 02:30:55;;;;;;;5.75;3.17;;;12.10;85.80;;;;;;4972178;28;20113;-76
2021/11/22 02:33:29;;;;;;;6.65;3.47;;;12.10;85.70;;;;;;4973490;28;20481;-76
2021/11/22 02:35:58;;;;;;;5.47;2.90;;;12.20;85.70;;;;;;4972088;28;20023;-76
2021/11/22 02:38:29;;;;;;;6.13;3.45;;;12.20;85.90;;;;;;4973594;28;20381;-76
2021/11/22 02:40:55;;;;;;;5.28;3.00;;;12.20;85.80;;;;;;4973550;28;20022;-77
2021/11/22 02:43:21;;;;;;;5.60;3.10;;;12.20;85.60;;;;;;4972268;28;20022;-76
2021/11/22 02:45:48;;;;;;;5.03;2.92;;;12.10;85.70;;;;;;4972058;28;20034;-76
2021/11/22 02:48:13;;;;;;;5.28;3.05;;;12.20;85.80;;;;;;4972142;28;20166;-76
2021/11/22 02:50:39;;;;;;;5.68;3.13;;;12.10;85.60;;;;;;4972369;28;20054;-77
2021/11/22 02:53:05;;;;;;;6.35;3.08;;;12.20;85.80;;;;;;4973308;28;20027;-76
2021/11/22 02:55:30;;;;;;;5.13;2.92;;;12.20;85.60;;;;;;4971685;28;20038;-76
2021/11/22 02:57:56;;;;;;;5.85;2.95;;;12.20;85.40;;;;;;4973447;28;20476;-76
2021/11/22 03:00:25;;;;;;;4.50;2.70;;;12.20;85.60;;;;;;4971944;28;20077;-76
2021/11/22 03:02:51;;;;;;;4.72;2.72;;;12.00;85.10;;;;;;4972090;28;20026;-78
2021/11/22 03:05:18;;;;;;;5.38;2.97;;;12.20;85.20;;;;;;4971812;28;20031;-75
2021/11/22 03:07:44;;;;;;;6.05;3.00;;;12.20;84.90;;;;;;4974731;28;20467;-76
2021/11/22 03:10:13;;;;;;;4.90;2.63;;;12.20;85.20;;;;;;4975727;28;20484;-76
2021/11/22 03:12:39;;;;;;;4.45;2.30;;;12.20;84.70;;;;;;4975776;28;20065;-76
2021/11/22 03:15:10;;;;;;;3.65;2.50;;;12.20;85.30;;;;;;4975408;28;20050;-76
2021/11/22 03:17:36;;;;;;;5.47;2.70;;;12.10;84.80;;;;;;4975748;28;20555;-76
2021/11/22 03:20:02;;;;;;;4.72;2.60;;;12.10;84.70;;;;;;4975595;28;20288;-76
2021/11/22 03:22:28;;;;;;;4.95;2.50;;;12.10;84.60;;;;;;4976626;28;20015;-76
2021/11/22 03:24:53;;;;;;;4.40;2.67;;;12.10;84.70;;;;;;4975179;28;20027;-76
2021/11/22 03:27:19;;;;;;;4.38;2.78;;;12.20;84.70;;;;;;4975433;28;20026;-76
2021/11/22 03:29:45;;;;;;;6.05;2.60;;;12.20;84.90;;;;;;4976200;28;20037;-76
2021/11/22 03:32:10;;;;;;;4.93;2.60;;;12.20;84.80;;;;;;4975297;28;20019;-77
2021/11/22 03:34:36;;;;;;;3.40;2.40;;;12.10;84.70;;;;;;4975050;28;20027;-76
2021/11/22 03:37:04;;;;;;;5.88;2.50;;;12.00;84.60;;;;;;4975187;28;20475;-76
2021/11/22 03:39:31;;;;;;;4.68;2.75;;;12.10;84.60;;;;;;4975271;28;20510;-77
2021/11/22 03:41:59;;;;;;;3.78;2.20;;;12.20;84.60;;;;;;4975151;28;20037;-76
2021/11/22 03:44:24;;;;;;;4.07;2.40;;;12.20;84.50;;;;;;4979086;28;20077;-76
2021/11/22 03:46:55;;;;;;;5.40;2.70;;;12.20;84.40;;;;;;4987422;28;20030;-76
2021/11/22 03:49:21;;;;;;;4.57;2.50;;;12.20;84.30;;;;;;4995498;28;20057;-77
2021/11/22 03:51:47;;;;;;;3.90;2.50;;;12.00;84.10;;;;;;4994422;28;20022;-76
2021/11/22 03:54:13;;;;;;;4.47;2.67;;;12.10;84.10;;;;;;4994239;28;20586;-76
2021/11/22 03:56:40;;;;;;;4.13;2.42;;;12.10;84.00;;;;;;5003210;23;20145;-82
2021/11/22 03:59:07;;;;;;;4.70;2.40;;;12.20;84.70;;;;;;4977876;28;20049;-81
2021/11/22 04:01:33;;;;;;;4.05;2.28;;;12.10;83.90;;;;;;4977797;28;20023;-81
2021/11/22 04:03:59;;;;;;;4.85;2.50;;;12.00;84.10;;;;;;4978086;28;20065;-82
2021/11/22 04:06:25;;;;;;;5.15;2.50;;;12.10;84.20;;;;;;4977727;28;20027;-82
2021/11/22 04:08:51;;;;;;;3.72;2.55;;;12.00;83.80;;;;;;4977692;28;20037;-82
2021/11/22 04:11:16;;;;;;;4.20;2.40;;;12.20;84.00;;;;;;4979283;28;20098;-82
2021/11/22 04:13:43;;;;;;;5.00;2.65;;;12.10;84.20;;;;;;4977747;28;20043;-81
2021/11/22 04:16:10;;;;;;;3.85;2.53;;;12.20;83.90;;;;;;4977342;28;20031;-82
2021/11/22 04:18:35;;;;;;;5.53;2.78;;;12.10;85.40;;;;;;4977220;28;20496;-81
2021/11/22 04:21:01;;;;;;;6.45;2.88;;;12.20;85.40;;;;;;4975125;28;20041;-81
2021/11/22 04:23:28;;;;;;;4.90;2.60;;;12.00;85.20;;;;;;4974095;28;20452;-81
2021/11/22 04:25:53;;;;;;;5.75;2.63;;;12.30;85.20;;;;;;4959607;28;20478;-81
2021/11/22 04:28:19;;;;;;;5.25;2.53;;;12.20;85.10;;;;;;4958219;29;20042;-82
2021/11/22 04:30:45;;;;;;;5.38;2.50;;;12.30;84.90;;;;;;4957909;29;20028;-82
2021/11/22 04:33:11;;;;;;;4.45;2.65;;;12.30;84.80;;;;;;4958284;29;20082;-81
2021/11/22 04:35:37;;;;;;;4.20;2.70;;;12.30;84.80;;;;;;4957611;28;20027;-81
2021/11/22 04:38:03;;;;;;;4.88;2.70;;;12.20;84.60;;;;;;4958025;29;20039;-81
2021/11/22 04:40:29;;;;;;;4.10;2.60;;;12.30;84.70;;;;;;4958186;29;20027;-81
2021/11/22 04:42:55;;;;;;;5.45;3.15;;;12.20;84.50;;;;;;4958119;29;20035;-81
2021/11/22 04:45:23;;;;;;;4.70;3.10;;;12.20;84.40;;;;;;4959108;29;20115;-81
2021/11/22 04:47:49;;;;;;;5.55;3.00;;;12.20;84.20;;;;;;4957907;28;20031;-82
2021/11/22 04:50:16;;;;;;;4.72;2.90;;;12.30;84.20;;;;;;4958028;29;20086;-82
2021/11/22 04:52:44;;;;;;;4.82;2.78;;;12.10;83.80;;;;;;4957754;29;20023;-81
2021/11/22 04:55:11;;;;;;;4.05;2.63;;;12.30;84.40;;;;;;4957326;29;20034;-82
2021/11/22 04:57:37;;;;;;;5.03;3.05;;;12.30;84.50;;;;;;4957632;28;20035;-81
2021/11/22 05:00:04;;;;;;;4.50;2.78;;;12.30;84.40;;;;;;4957197;29;20027;-81
2021/11/22 05:02:30;;;;;;;4.88;2.85;;;12.10;84.00;;;;;;4957250;29;20027;-82
2021/11/22 05:04:56;;;;;;;4.18;2.80;;;12.20;83.90;;;;;;4958744;29;20154;-83
2021/11/22 05:07:21;;;;;;;4.53;3.00;;;12.00;84.10;;;;;;4957427;28;20031;-81
2021/11/22 05:09:47;;;;;;;5.63;3.10;;;12.20;84.20;;;;;;4956921;29;20074;-82
2021/11/22 05:12:14;;;;;;;5.57;3.15;;;12.10;84.10;;;;;;4957461;29;20028;-82
2021/11/22 05:14:40;;;;;;;5.53;3.33;;;12.10;84.20;;;;;;4957011;29;20082;-83
2021/11/22 05:17:06;;;;;;;5.72;3.10;;;12.10;84.30;;;;;;4956995;28;20027;-83
2021/11/22 05:19:32;;;;;;;4.43;3.17;;;12.10;84.30;;;;;;4957394;29;20035;-82
2021/11/22 05:22:00;;;;;;;6.97;3.50;;;12.10;84.20;;;;;;4957120;29;20031;-82
2021/11/22 05:24:26;;;;;;;5.30;3.55;;;12.20;84.10;;;;;;4956967;29;20032;-81
2021/11/22 05:26:52;;;;;;;5.32;3.33;;;12.10;84.00;;;;;;4956974;28;20034;-81
2021/11/22 05:29:18;;;;;;;5.78;3.70;;;12.10;84.20;;;;;;4955606;28;20031;-82
2021/11/22 05:31:44;;;;;;;5.80;3.75;;;12.00;84.00;;;;;;4956918;29;20031;-81
2021/11/22 05:34:10;;;;;;;5.47;3.30;;;12.00;84.00;;;;;;4957825;29;20393;-81
2021/11/22 05:36:36;;;;;;;6.10;3.58;;;12.10;83.80;;;;;;4956755;28;20019;-81
2021/11/22 05:39:06;;;;;;;6.32;3.90;;;12.00;83.80;;;;;;4956873;29;20433;-83
2021/11/22 05:41:32;;;;;;;6.90;3.65;;;12.00;83.80;;;;;;4956420;29;20050;-81
2021/11/22 05:43:57;;;;;;;6.18;3.58;;;12.00;84.20;;;;;;4957001;29;20079;-80
2021/11/22 05:46:23;;;;;;;5.82;3.78;;;11.90;83.70;;;;;;4968584;28;20026;-82
2021/11/22 05:48:49;;;;;;;6.03;3.70;;;12.10;83.70;;;;;;4956339;29;20035;-81
2021/11/22 05:51:15;;;;;;;6.25;3.78;;;12.00;83.50;;;;;;4956897;29;20026;-82
2021/11/22 05:53:42;;;;;;;7.18;4.00;;;12.10;83.40;;;;;;4958642;29;20035;-81
2021/11/22 05:56:09;;;;;;;6.65;3.90;;;12.10;83.50;;;;;;4956364;28;20027;-81
2021/11/22 05:58:35;;;;;;;5.85;3.65;;;12.10;83.70;;;;;;4956582;29;20027;-81
2021/11/22 06:01:04;;;;;;;6.20;4.05;;;12.00;83.20;;;;;;4956642;29;20027;-82
2021/11/22 06:03:30;;;;;;;5.80;3.78;;;12.00;83.60;;;;;;4956583;29;20374;-82
2021/11/22 06:05:57;;;;;;;5.90;4.05;;;12.00;83.20;;;;;;4956293;28;20067;-81
2021/11/22 06:08:24;;;;;;;5.85;4.15;;;12.00;83.30;;;;;;4956117;29;20034;-83
2021/11/22 06:10:50;;;;;;;6.95;3.78;;;12.10;83.40;;;;;;4955567;29;20489;-82
2021/11/22 06:13:16;;;;;;;6.10;4.07;;;12.00;83.10;;;;;;4958331;28;20028;-83
2021/11/22 06:15:43;;;;;;;6.30;4.00;;;12.10;83.20;;;;;;4973589;28;20452;-82
2021/11/22 06:18:09;;;;;;;7.00;4.20;;;12.00;83.20;;;;;;4974410;28;20034;-80
2021/11/22 06:20:35;;;;;;;6.65;4.35;;;12.10;82.90;;;;;;4972134;28;20472;-80
2021/11/22 06:23:01;;;;;;;6.30;4.60;;;11.90;82.80;;;;;;4968170;28;20035;-83
2021/11/22 06:25:27;;;;;;;5.93;3.90;;;12.00;82.60;;;;;;4971228;28;20041;-81
2021/11/22 06:27:53;;;;;;;8.38;4.95;;;12.10;82.90;;;;;;4971361;28;20117;-80
2021/11/22 06:30:19;;;;;;;7.00;4.88;;;12.10;82.70;;;;;;4973081;28;20066;-80
2021/11/22 06:32:45;;;;;;;6.47;4.45;;;12.10;82.40;;;;;;4971934;28;20031;-81
2021/11/22 06:35:10;;;;;;;6.70;4.43;;;12.10;82.40;;;;;;4972775;28;20026;-82
2021/11/22 06:37:36;;;;;;;6.25;4.30;;;12.00;82.50;;;;;;4973068;28;20026;-83
2021/11/22 06:40:07;;;;;;;7.05;4.10;;;12.00;81.80;;;;;;4973157;28;20026;-82
2021/11/22 06:42:33;;;;;;;6.35;3.95;;;12.00;81.50;;;;;;4976924;28;20456;-82
2021/11/22 06:44:59;;;;;;;7.25;4.50;;;12.00;81.80;;;;;;4976380;28;20074;-82
2021/11/22 06:47:26;;;;;;;7.15;4.63;;;12.00;81.50;;;;;;4977399;28;20028;-84
2021/11/22 06:49:52;;;;;;;8.02;4.30;;;12.00;81.60;;;;;;4976368;28;20058;-83
2021/11/22 06:52:20;;;;;;;6.68;4.65;;;12.00;81.90;;;;;;4976192;28;20548;-83
2021/11/22 06:54:46;;;;;;;6.88;4.68;;;11.90;81.40;;;;;;4967044;28;20086;-81
2021/11/22 06:57:14;;;;;;;6.50;4.55;;;12.10;81.00;;;;;;4967501;28;20041;-85
2021/11/22 06:59:40;;;;;;;6.50;4.40;;;11.90;81.00;;;;;;4966262;28;20026;-82
2021/11/22 07:02:11;;;;;;;8.27;4.85;;;12.00;81.00;;;;;;4962424;28;20029;-82
2021/11/22 07:04:37;;;;;;;7.10;4.72;;;12.00;81.30;;;;;;4967286;28;20054;-81
2021/11/22 07:07:03;;;;;;;7.97;4.97;;;12.00;81.00;;;;;;4970269;28;20043;-81
2021/11/22 07:09:28;;;;;;;7.50;4.82;;;12.00;81.00;;;;;;4976999;28;20035;-81
2021/11/22 07:11:54;;;;;;;7.10;4.72;;;12.00;80.90;;;;;;4976146;28;20023;-81
2021/11/22 07:14:20;;;;;;;7.45;4.60;;;12.00;80.50;;;;;;4976627;28;20452;-82
2021/11/22 07:16:45;;;;;;;8.60;4.85;;;12.00;80.30;;;;;;4976686;28;20023;-82
2021/11/22 07:19:11;;;;;;;7.03;4.75;;;12.00;80.30;;;;;;4976974;28;20027;-84
2021/11/22 07:21:37;;;;;;;7.50;4.72;;;12.00;80.30;;;;;;4978720;28;20046;-81
2021/11/22 07:24:02;;;;;;;8.10;4.97;;;12.00;80.00;;;;;;4978613;28;20054;-81
2021/11/22 07:26:28;;;;;;;8.48;4.80;;;12.00;80.10;;;;;;4976670;28;20759;-83
2021/11/22 07:28:54;;;;;;;8.15;5.00;;;11.90;79.80;;;;;;4966917;28;20027;-83
2021/11/22 07:31:19;;;;;;;10.05;5.63;;;11.90;79.50;;;;;;4966565;28;20027;-83
2021/11/22 07:33:45;;;;;;;9.45;5.60;;;12.10;79.30;;;;;;4968008;28;20027;-84
2021/11/22 07:36:10;;;;;;;9.68;5.05;;;11.90;79.80;;;;;;4964918;28;20027;-82
2021/11/22 07:38:36;;;;;;;8.35;5.45;;;12.10;79.50;;;;;;4966998;28;20090;-83
2021/11/22 07:41:03;;;;;;;7.85;5.13;;;12.10;80.50;;;;;;4958262;28;20035;-81
2021/11/22 07:43:28;;;;;;;7.93;5.43;;;12.20;82.40;;;;;;4957107;28;20106;-83
2021/11/22 07:45:54;;;;;;;8.55;5.30;;;12.20;82.00;;;;;;4965465;28;20031;-82
2021/11/22 07:48:19;;;;;;;6.97;5.07;;;12.30;81.90;;;;;;4962155;28;20032;-83
2021/11/22 07:50:45;;;;;;;7.57;5.53;;;12.30;81.60;;;;;;4975099;28;20034;-83
2021/11/22 07:53:11;;;;;;;7.05;5.05;;;12.30;81.40;;;;;;4975060;28;20030;-83
2021/11/22 07:55:36;;;;;;;7.55;5.43;;;12.50;81.40;;;;;;4975910;28;20408;-83
2021/11/22 07:58:02;;;;;;;7.30;5.30;;;12.30;81.20;;;;;;4974140;28;20500;-82
2021/11/22 08:00:28;;;;;;;9.63;5.43;;;12.50;80.90;;;;;;4974815;28;20334;-81
2021/11/22 08:02:54;;;;;;;9.52;5.28;;;12.60;80.70;;;;;;4974125;28;20457;-82
2021/11/22 08:05:22;;;;;;;7.70;5.10;;;12.60;80.40;;;;;;4973403;28;20366;-83
2021/11/22 08:07:51;;;;;;;8.00;4.95;;;12.60;80.30;;;;;;4973585;28;20571;-82
2021/11/22 08:12:51;;;;;;;7.53;4.40;;;12.70;80.00;;;;;;4975164;28;20563;-81
2021/11/22 08:15:17;;;;;;;11.88;4.78;;;12.60;79.40;;;;;;4970132;28;20123;-82
2021/11/22 08:17:43;;;;;;;11.85;5.90;;;12.70;79.30;;;;;;4966048;28;20112;-85
2021/11/22 08:20:16;;;;;;;9.30;5.40;;;12.60;77.90;;;;;;4966681;28;20030;-81
2021/11/22 08:22:42;;;;;;;11.27;5.45;;;12.60;76.10;;;;;;4963598;28;20022;-81
2021/11/22 08:25:10;;;;;;;8.65;4.65;;;12.60;76.30;;;;;;4960886;28;20034;-82
2021/11/22 08:27:35;;;;;;;8.20;4.93;;;12.60;76.50;;;;;;4960504;28;20146;-80
2021/11/22 08:30:06;;;;;;;8.55;5.18;;;12.50;76.50;;;;;;4954248;28;20113;-80
2021/11/22 08:32:32;;;;;;;7.72;4.70;;;12.70;76.30;;;;;;4954532;28;20100;-81
2021/11/22 08:34:58;;;;;;;10.32;4.47;;;12.70;76.30;;;;;;4965181;28;20131;-82
2021/11/22 08:37:24;;;;;;;10.60;4.95;;;12.60;75.80;;;;;;4971450;28;20026;-81
2021/11/22 08:39:50;;;;;;;10.07;4.88;;;12.70;76.30;;;;;;4970538;28;20030;-82
2021/11/22 08:42:15;;;;;;;8.38;5.22;;;12.70;75.60;;;;;;4970491;28;20031;-80
2021/11/22 08:44:41;;;;;;;8.65;5.13;;;12.80;75.90;;;;;;4970271;28;20033;-82
2021/11/22 08:47:07;;;;;;;8.88;5.00;;;12.70;75.80;;;;;;4970144;28;20408;-82
2021/11/22 08:49:34;;;;;;;7.45;5.10;;;12.80;75.90;;;;;;4971615;28;20580;-81
2021/11/22 08:52:00;;;;;;;8.43;4.85;;;12.80;75.70;;;;;;4970045;28;20045;-81
2021/11/22 08:54:26;;;;;;;7.85;4.68;;;12.80;75.90;;;;;;4970076;28;20019;-82
2021/11/22 08:56:51;;;;;;;15.65;6.00;;;12.80;75.70;;;;;;4971407;28;20034;-83
2021/11/22 08:59:18;;;;;;;8.27;5.10;;;12.90;75.80;;;;;;4970053;28;20493;-80
2021/11/22 09:01:44;;;;;;;8.63;4.95;;;12.80;75.70;;;;;;4970266;28;20489;-81
2021/11/22 09:04:11;;;;;;;8.45;5.03;;;12.90;75.80;;;;;;4971002;28;20031;-80
2021/11/22 09:06:36;;;;;;;8.40;4.80;;;12.90;75.70;;;;;;4971431;28;20033;-81
2021/11/22 09:09:08;;;;;;;7.78;5.10;;;12.80;75.50;;;;;;4969521;28;20035;-82
2021/11/22 09:11:35;;;;;;;7.55;4.97;;;12.90;75.70;;;;;;4970121;28;20759;-82
2021/11/22 09:14:00;;;;;;;7.35;4.47;;;12.90;75.50;;;;;;4969710;28;20390;-80
2021/11/22 09:16:27;;;;;;;6.78;4.60;;;12.90;75.50;;;;;;4971182;28;20030;-82
2021/11/22 09:18:58;;;;;;;7.47;5.20;;;12.80;75.50;;;;;;4969891;28;20500;-81
2021/11/22 09:21:25;;;;;;;8.27;5.40;;;13.00;75.60;;;;;;4969074;28;20035;-80
2021/11/22 09:23:51;;;;;;;8.57;4.80;;;13.00;75.50;;;;;;4969285;28;20277;-81
2021/11/22 09:26:17;;;;;;;8.40;5.10;;;13.00;75.60;;;;;;4968808;28;20026;-82
2021/11/22 09:28:44;;;;;;;8.70;5.60;;;12.90;75.50;;;;;;4969136;28;20851;-80
2021/11/22 09:31:10;;;;;;;7.75;5.22;;;12.90;75.40;;;;;;4969351;28;20034;-80
2021/11/22 09:33:36;;;;;;;8.20;5.07;;;13.00;75.60;;;;;;4969081;28;20578;-82
2021/11/22 09:36:02;;;;;;;7.78;4.88;;;13.00;75.50;;;;;;4969178;28;20134;-81
2021/11/22 09:38:28;;;;;;;7.72;4.82;;;13.00;76.00;;;;;;4969090;28;20178;-83
2021/11/22 09:40:54;;;;;;;6.53;4.55;;;13.00;75.50;;;;;;4969458;28;20157;-80
2021/11/22 09:43:20;;;;;;;8.25;4.82;;;13.00;75.50;;;;;;4970771;28;20026;-81
2021/11/22 09:45:47;;;;;;;7.43;4.95;;;13.00;75.60;;;;;;4969044;28;20038;-81
2021/11/22 09:48:14;;;;;;;6.70;4.65;;;13.10;75.60;;;;;;4968738;28;20528;-82
2021/11/22 09:50:40;;;;;;;7.80;5.47;;;13.10;75.70;;;;;;4968960;28;20031;-82
2021/11/22 09:53:06;;;;;;;7.53;4.82;;;13.10;75.60;;;;;;4970199;28;20022;-80
2021/11/22 09:55:33;;;;;;;6.90;4.45;;;13.10;75.60;;;;;;4968364;28;20041;-80
2021/11/22 09:58:01;;;;;;;8.02;5.32;;;13.10;75.60;;;;;;4968567;28;20072;-81
2021/11/22 10:00:45;;;;;;;7.47;5.13;;;13.00;75.40;;;;;;4970038;28;20023;-82
2021/11/22 10:03:13;;;;;;;7.28;4.63;;;13.00;75.40;;;;;;4969110;28;20047;-83
2021/11/22 10:05:42;;;;;;;8.63;5.22;;;13.10;75.40;;;;;;4968412;28;20143;-82
2021/11/22 10:08:10;;;;;;;6.82;4.88;;;13.10;75.30;;;;;;4970151;28;20030;-80
2021/11/22 10:10:41;;;;;;;7.40;4.93;;;13.10;75.40;;;;;;4969792;28;20114;-80
2021/11/22 10:13:30;;;;;;;8.70;4.80;;;13.20;75.40;;;;;;4970362;28;20037;-81
2021/11/22 10:16:01;;;;;;;6.63;4.65;;;13.20;75.60;;;;;;4967759;28;20298;-83
2021/11/22 10:18:30;;;;;;;7.73;4.87;;;13.20;75.50;;;;;;4970038;28;20440;-82
2021/11/22 10:21:02;;;;;;;7.13;5.00;;;13.10;75.70;;;;;;4968400;28;20041;-80
2021/11/22 10:23:28;;;;;;;8.60;4.82;;;13.30;75.50;;;;;;4968680;28;20492;-79
2021/11/22 10:25:57;;;;;;;7.43;4.88;;;13.20;75.40;;;;;;4969724;28;20067;-82
2021/11/22 10:28:29;;;;;;;6.90;4.32;;;13.20;75.20;;;;;;4968382;28;20034;-80
2021/11/22 10:31:03;;;;;;;8.32;4.82;;;13.30;75.10;;;;;;4968427;28;20034;-81
2021/11/22 10:33:32;;;;;;;7.63;4.28;;;13.20;74.90;;;;;;4968361;28;20082;-80
2021/11/22 10:36:00;;;;;;;7.68;4.97;;;13.30;74.90;;;;;;4968298;28;20114;-80
2021/11/22 10:38:32;;;;;;;7.25;4.88;;;13.30;74.90;;;;;;4968344;28;20031;-80
2021/11/22 10:41:01;;;;;;;6.97;4.60;;;13.20;74.80;;;;;;4968462;28;20512;-81
2021/11/22 10:43:40;;;;;;;7.45;4.70;;;13.30;75.30;;;;;;4968199;28;20539;-82
2021/11/22 10:46:09;;;;;;;7.13;4.40;;;13.30;74.70;;;;;;4967536;28;20339;-80
2021/11/22 10:48:35;;;;;;;8.30;4.63;;;13.30;74.90;;;;;;4967953;28;20027;-84
2021/11/22 10:51:26;;;;;;;8.23;4.68;;;13.40;75.20;;;;;;4968231;28;20074;-82
2021/11/22 10:53:54;;;;;;;6.25;4.43;;;13.40;75.20;;;;;;4968849;28;20030;-80
2021/11/22 10:56:23;;;;;;;6.88;4.40;;;13.40;75.40;;;;;;4967312;28;20107;-82
2021/11/22 10:59:22;;;;;;;7.35;4.25;;;13.40;75.30;;;;;;4971060;28;20035;-82
2021/11/22 11:01:53;;;;;;;7.60;4.23;;;13.40;74.80;;;;;;4967414;28;20448;-82
2021/11/22 11:04:37;;;;;;;8.02;4.60;;;13.40;74.20;;;;;;4970560;28;20038;-81
2021/11/22 11:07:08;;;;;;;6.53;3.90;;;13.40;74.20;;;;;;4972042;28;20035;-82
2021/11/22 11:10:04;;;;;;;7.35;4.32;;;13.50;73.90;;;;;;4953242;28;20039;-82
2021/11/22 11:12:30;;;;;;;7.47;4.20;;;13.50;73.90;;;;;;4950986;29;20042;-83
2021/11/22 11:14:57;;;;;;;6.35;4.00;;;13.60;74.00;;;;;;4952270;29;20023;-82
2021/11/22 11:17:33;;;;;;;6.75;3.83;;;13.60;73.70;;;;;;4961784;28;20086;-83
2021/11/22 11:20:12;;;;;;;6.55;3.80;;;13.60;74.40;;;;;;4951044;29;20035;-86
2021/11/22 11:22:38;;;;;;;7.03;4.03;;;13.60;73.90;;;;;;4950903;29;20464;-84
2021/11/22 11:25:06;;;;;;;7.57;4.00;;;13.60;74.30;;;;;;4950819;29;20027;-83
2021/11/22 11:27:34;;;;;;;7.55;4.00;;;13.70;74.20;;;;;;4951960;28;20035;-85
2021/11/22 11:30:00;;;;;;;6.88;3.33;;;13.70;74.20;;;;;;4954448;29;20043;-82
2021/11/22 11:32:28;;;;;;;7.57;3.75;;;13.70;74.20;;;;;;4960596;28;20030;-83
2021/11/22 11:34:57;;;;;;;10.20;4.30;;;13.70;73.40;;;;;;4987913;28;20085;-85
2021/11/22 11:37:44;;;;;;;7.70;3.45;;;13.70;73.50;;;;;;4995138;28;20092;-84
2021/11/22 11:40:37;;;;;;;8.02;3.30;;;13.50;73.30;;;;;;4994716;28;20456;-84
2021/11/22 11:43:36;;;;;;;7.78;3.60;;;13.60;73.20;;;;;;4994857;28;20027;-83
2021/11/22 11:46:26;;;;;;;7.07;3.03;;;13.60;73.50;;;;;;4993869;28;20031;-83
2021/11/22 11:49:06;;;;;;;6.93;3.30;;;13.50;73.20;;;;;;4977761;28;20035;-82
2021/11/22 11:51:44;;;;;;;7.13;3.42;;;13.50;73.30;;;;;;4974836;28;20031;-85
2021/11/22 11:54:24;;;;;;;6.30;3.25;;;13.50;73.30;;;;;;4967595;28;20117;-83
2021/11/22 11:57:02;;;;;;;8.00;3.10;;;13.50;73.30;;;;;;4966328;28;20031;-86
2021/11/22 11:59:45;;;;;;;5.38;2.90;;;13.50;73.30;;;;;;4963886;28;20031;-83
2021/11/22 12:02:13;;;;;;;6.38;2.85;;;13.40;73.30;;;;;;4967930;28;20016;-83
2021/11/22 12:04:48;;;;;;;6.03;2.80;;;13.50;73.30;;;;;;4966906;28;20451;-84
2021/11/22 12:07:23;;;;;;;6.03;2.95;;;13.50;73.40;;;;;;4973643;28;20089;-87
2021/11/22 12:10:03;;;;;;;6.15;2.80;;;13.40;73.50;;;;;;4974567;28;20033;-83
2021/11/22 12:12:34;;;;;;;5.15;2.55;;;13.50;73.60;;;;;;4974789;28;20018;-83
2021/11/22 12:15:20;;;;;;;;;;;13.40;73.60;;;;;;4975951;28;20031;-83
2021/11/22 12:17:45;;;;;;;6.10;2.50;;;13.40;73.30;;;;;;4974869;28;19910;-84
2021/11/22 12:20:34;;;;;;;5.90;2.50;;;13.50;73.40;;;;;;4974673;28;20374;-82
2021/11/22 12:23:02;;;;;;;5.82;2.78;;;13.40;73.30;;;;;;4974068;28;20511;-84
2021/11/22 12:25:45;;;;;;;4.53;2.40;;;13.40;73.40;;;;;;4973622;28;20026;-82
2021/11/22 12:28:19;;;;;;;5.47;2.47;;;13.40;73.20;;;;;;4973957;28;20121;-83
2021/11/22 12:30:48;;;;;;;5.40;2.50;;;13.40;73.30;;;;;;4964626;28;20050;-83
2021/11/22 12:33:20;;;;;;;4.35;2.22;;;13.40;73.30;;;;;;4965323;28;20023;-82
2021/11/22 12:35:50;;;;;;;;;;;13.40;73.20;;;;;;4962279;28;20061;-84
2021/11/22 12:38:28;;;;;;;4.40;2.10;;;13.40;73.30;;;;;;4961422;28;20264;-83
2021/11/22 12:41:07;;;;;;;6.03;2.40;;;13.40;73.40;;;;;;4964411;28;20019;-84
2021/11/22 12:43:40;;;;;;;4.63;2.10;;;13.40;73.50;;;;;;4979916;28;20084;-83
2021/11/22 12:46:07;;;;;;;5.97;2.22;;;13.40;73.50;;;;;;4973775;28;20031;-84
2021/11/22 12:48:34;;;;;;;3.97;1.90;;;13.40;73.70;;;;;;4973453;28;20037;-83
2021/11/22 12:51:07;;;;;;;3.83;1.90;;;13.30;73.70;;;;;;4975337;28;20031;-84
2021/11/22 12:53:34;;;;;;;4.78;1.92;;;13.30;73.70;;;;;;4992937;28;20030;-84
2021/11/22 12:56:00;;;;;;;5.30;2.20;;;13.30;73.70;;;;;;4993487;28;20038;-83